sensor_id;sensor_type;location;lat;lon;timestamp;P1;durP1;ratioP1;P2;durP2;ratioP2
32196;SDS011;18697;42.770;23.400;2023-03-14T00:01:09;54.60;;;25.95;;
32196;SDS011;18697;42.770;23.400;2023-03-14T00:06:07;50.07;;;26.53;;
32196;SDS011;18697;42.770;23.400;2023-03-14T00:08:33;51.88;;;25.95;;
32196;SDS011;18697;42.770;23.400;2023-03-14T00:11:09;49.72;;;28.27;;
32196;SDS011;18697;42.770;23.400;2023-03-14T00:13:37;66.43;;;29.50;;
32196;SDS011;18697;42.770;23.400;2023-03-14T00:16:06;66.30;;;31.25;;
32196;SDS011;18697;42.770;23.400;2023-03-14T00:18:34;64.20;;;30.60;;
32196;SDS011;18697;42.770;23.400;2023-03-14T00:21:00;69.18;;;31.30;;
32196;SDS011;18697;42.770;23.400;2023-03-14T00:23:27;62.92;;;29.92;;
32196;SDS011;18697;42.770;23.400;2023-03-14T00:25:58;57.15;;;29.95;;
32196;SDS011;18697;42.770;23.400;2023-03-14T00:28:27;61.13;;;30.00;;
32196;SDS011;18697;42.770;23.400;2023-03-14T00:30:53;57.22;;;26.00;;
32196;SDS011;18697;42.770;23.400;2023-03-14T00:33:18;55.92;;;26.48;;
32196;SDS011;18697;42.770;23.400;2023-03-14T00:35:43;48.28;;;24.45;;
32196;SDS011;18697;42.770;23.400;2023-03-14T00:38:17;44.78;;;23.52;;
32196;SDS011;18697;42.770;23.400;2023-03-14T00:40:43;37.08;;;19.83;;
32196;SDS011;18697;42.770;23.400;2023-03-14T00:43:08;45.13;;;20.38;;
32196;SDS011;18697;42.770;23.400;2023-03-14T00:45:33;35.97;;;18.25;;
32196;SDS011;18697;42.770;23.400;2023-03-14T00:48:00;25.02;;;13.63;;
32196;SDS011;18697;42.770;23.400;2023-03-14T00:50:25;27.42;;;14.65;;
32196;SDS011;18697;42.770;23.400;2023-03-14T00:52:50;10.63;;;6.93;;
32196;SDS011;18697;42.770;23.400;2023-03-14T00:55:16;9.65;;;6.35;;
32196;SDS011;18697;42.770;23.400;2023-03-14T00:57:41;9.40;;;4.93;;
32196;SDS011;18697;42.770;23.400;2023-03-14T01:00:07;9.68;;;6.07;;
32196;SDS011;18697;42.770;23.400;2023-03-14T01:02:36;16.48;;;9.60;;
32196;SDS011;18697;42.770;23.400;2023-03-14T01:05:01;7.90;;;5.32;;
32196;SDS011;18697;42.770;23.400;2023-03-14T01:07:26;28.92;;;11.48;;
32196;SDS011;18697;42.770;23.400;2023-03-14T01:09:52;13.25;;;6.47;;
32196;SDS011;18697;42.770;23.400;2023-03-14T01:12:18;12.40;;;5.72;;
32196;SDS011;18697;42.770;23.400;2023-03-14T01:14:43;11.73;;;6.47;;
32196;SDS011;18697;42.770;23.400;2023-03-14T01:17:08;23.10;;;12.32;;
32196;SDS011;18697;42.770;23.400;2023-03-14T01:19:34;38.95;;;19.95;;
32196;SDS011;18697;42.770;23.400;2023-03-14T01:21:59;39.60;;;18.08;;
32196;SDS011;18697;42.770;23.400;2023-03-14T01:24:24;44.80;;;21.75;;
32196;SDS011;18697;42.770;23.400;2023-03-14T01:26:50;42.47;;;20.15;;
32196;SDS011;18697;42.770;23.400;2023-03-14T01:29:15;39.63;;;21.92;;
32196;SDS011;18697;42.770;23.400;2023-03-14T01:31:40;38.63;;;21.83;;
32196;SDS011;18697;42.770;23.400;2023-03-14T01:34:06;37.25;;;21.67;;
32196;SDS011;18697;42.770;23.400;2023-03-14T01:36:31;39.47;;;21.27;;
32196;SDS011;18697;42.770;23.400;2023-03-14T01:38:56;47.03;;;22.63;;
32196;SDS011;18697;42.770;23.400;2023-03-14T01:41:23;37.20;;;20.33;;
32196;SDS011;18697;42.770;23.400;2023-03-14T01:43:50;36.72;;;19.48;;
32196;SDS011;18697;42.770;23.400;2023-03-14T01:46:20;37.33;;;19.25;;
32196;SDS011;18697;42.770;23.400;2023-03-14T01:54:21;36.80;;;19.40;;
32196;SDS011;18697;42.770;23.400;2023-03-14T01:56:57;39.47;;;20.77;;
32196;SDS011;18697;42.770;23.400;2023-03-14T01:59:46;39.50;;;21.30;;
32196;SDS011;18697;42.770;23.400;2023-03-14T02:02:16;45.13;;;22.48;;
32196;SDS011;18697;42.770;23.400;2023-03-14T02:04:42;46.08;;;22.55;;
32196;SDS011;18697;42.770;23.400;2023-03-14T02:07:15;44.92;;;23.00;;
32196;SDS011;18697;42.770;23.400;2023-03-14T02:09:44;47.85;;;21.92;;
32196;SDS011;18697;42.770;23.400;2023-03-14T02:12:11;51.60;;;22.15;;
32196;SDS011;18697;42.770;23.400;2023-03-14T02:14:40;39.50;;;20.63;;
32196;SDS011;18697;42.770;23.400;2023-03-14T02:17:07;48.03;;;21.75;;
32196;SDS011;18697;42.770;23.400;2023-03-14T02:22:15;44.80;;;20.95;;
32196;SDS011;18697;42.770;23.400;2023-03-14T02:25:27;38.97;;;17.63;;
32196;SDS011;18697;42.770;23.400;2023-03-14T02:27:31;32.88;;;13.80;;
32196;SDS011;18697;42.770;23.400;2023-03-14T02:32:33;26.58;;;12.43;;
32196;SDS011;18697;42.770;23.400;2023-03-14T02:35:02;24.02;;;11.38;;
32196;SDS011;18697;42.770;23.400;2023-03-14T02:37:33;16.40;;;8.43;;
32196;SDS011;18697;42.770;23.400;2023-03-14T02:40:03;21.10;;;10.52;;
32196;SDS011;18697;42.770;23.400;2023-03-14T02:42:29;28.75;;;15.73;;
32196;SDS011;18697;42.770;23.400;2023-03-14T02:47:29;27.70;;;14.32;;
32196;SDS011;18697;42.770;23.400;2023-03-14T02:50:03;33.35;;;16.95;;
32196;SDS011;18697;42.770;23.400;2023-03-14T02:52:32;34.95;;;16.60;;
32196;SDS011;18697;42.770;23.400;2023-03-14T02:54:58;36.05;;;18.42;;
32196;SDS011;18697;42.770;23.400;2023-03-14T02:57:23;30.00;;;16.80;;
32196;SDS011;18697;42.770;23.400;2023-03-14T02:59:49;43.05;;;19.48;;
32196;SDS011;18697;42.770;23.400;2023-03-14T03:02:14;169.32;;;69.57;;
32196;SDS011;18697;42.770;23.400;2023-03-14T03:04:39;73.20;;;36.22;;
32196;SDS011;18697;42.770;23.400;2023-03-14T03:07:05;40.35;;;20.05;;
32196;SDS011;18697;42.770;23.400;2023-03-14T03:09:30;35.63;;;18.27;;
32196;SDS011;18697;42.770;23.400;2023-03-14T03:11:55;42.78;;;19.23;;
32196;SDS011;18697;42.770;23.400;2023-03-14T03:14:21;34.40;;;18.35;;
32196;SDS011;18697;42.770;23.400;2023-03-14T03:16:46;37.53;;;17.55;;
32196;SDS011;18697;42.770;23.400;2023-03-14T03:19:11;28.48;;;15.02;;
32196;SDS011;18697;42.770;23.400;2023-03-14T03:21:38;26.95;;;14.25;;
32196;SDS011;18697;42.770;23.400;2023-03-14T03:24:04;25.13;;;15.10;;
32196;SDS011;18697;42.770;23.400;2023-03-14T03:26:29;24.30;;;14.35;;
32196;SDS011;18697;42.770;23.400;2023-03-14T03:28:55;20.33;;;12.43;;
32196;SDS011;18697;42.770;23.400;2023-03-14T03:31:20;20.05;;;11.05;;
32196;SDS011;18697;42.770;23.400;2023-03-14T03:33:46;17.83;;;10.85;;
32196;SDS011;18697;42.770;23.400;2023-03-14T03:36:12;24.88;;;10.65;;
32196;SDS011;18697;42.770;23.400;2023-03-14T03:38:37;18.40;;;11.23;;
32196;SDS011;18697;42.770;23.400;2023-03-14T03:41:04;15.00;;;10.43;;
32196;SDS011;18697;42.770;23.400;2023-03-14T03:43:31;18.35;;;10.48;;
32196;SDS011;18697;42.770;23.400;2023-03-14T03:45:57;17.60;;;9.93;;
32196;SDS011;18697;42.770;23.400;2023-03-14T03:48:22;15.32;;;9.57;;
32196;SDS011;18697;42.770;23.400;2023-03-14T03:50:47;21.35;;;11.23;;
32196;SDS011;18697;42.770;23.400;2023-03-14T03:53:13;18.88;;;11.65;;
32196;SDS011;18697;42.770;23.400;2023-03-14T03:55:40;14.68;;;9.98;;
32196;SDS011;18697;42.770;23.400;2023-03-14T03:58:07;21.50;;;11.60;;
32196;SDS011;18697;42.770;23.400;2023-03-14T04:00:33;24.02;;;13.65;;
32196;SDS011;18697;42.770;23.400;2023-03-14T04:02:58;29.77;;;15.93;;
32196;SDS011;18697;42.770;23.400;2023-03-14T04:05:24;32.72;;;17.10;;
32196;SDS011;18697;42.770;23.400;2023-03-14T04:07:49;24.88;;;14.60;;
32196;SDS011;18697;42.770;23.400;2023-03-14T04:10:15;25.83;;;15.55;;
32196;SDS011;18697;42.770;23.400;2023-03-14T04:12:40;26.83;;;15.68;;
32196;SDS011;18697;42.770;23.400;2023-03-14T04:15:06;18.38;;;11.60;;
32196;SDS011;18697;42.770;23.400;2023-03-14T04:17:32;16.65;;;9.55;;
32196;SDS011;18697;42.770;23.400;2023-03-14T04:19:57;13.98;;;9.40;;
32196;SDS011;18697;42.770;23.400;2023-03-14T04:22:22;217.20;;;56.22;;
32196;SDS011;18697;42.770;23.400;2023-03-14T04:24:48;77.80;;;28.00;;
32196;SDS011;18697;42.770;23.400;2023-03-14T04:27:13;29.30;;;15.48;;
32196;SDS011;18697;42.770;23.400;2023-03-14T04:29:39;26.42;;;14.23;;
32196;SDS011;18697;42.770;23.400;2023-03-14T04:32:05;29.80;;;14.13;;
32196;SDS011;18697;42.770;23.400;2023-03-14T04:34:30;20.60;;;12.65;;
32196;SDS011;18697;42.770;23.400;2023-03-14T04:36:56;17.10;;;9.07;;
32196;SDS011;18697;42.770;23.400;2023-03-14T04:39:43;13.30;;;7.10;;
32196;SDS011;18697;42.770;23.400;2023-03-14T04:42:08;16.23;;;7.15;;
32196;SDS011;18697;42.770;23.400;2023-03-14T04:44:34;20.20;;;7.35;;
32196;SDS011;18697;42.770;23.400;2023-03-14T04:46:59;12.27;;;6.90;;
32196;SDS011;18697;42.770;23.400;2023-03-14T04:49:24;12.90;;;8.32;;
32196;SDS011;18697;42.770;23.400;2023-03-14T04:51:50;28.70;;;9.80;;
32196;SDS011;18697;42.770;23.400;2023-03-14T04:54:16;43.42;;;12.48;;
32196;SDS011;18697;42.770;23.400;2023-03-14T04:56:42;32.60;;;13.68;;
32196;SDS011;18697;42.770;23.400;2023-03-14T04:59:07;33.83;;;12.15;;
32196;SDS011;18697;42.770;23.400;2023-03-14T05:01:33;25.10;;;11.40;;
32196;SDS011;18697;42.770;23.400;2023-03-14T05:03:59;28.35;;;14.48;;
32196;SDS011;18697;42.770;23.400;2023-03-14T05:06:24;31.85;;;15.38;;
32196;SDS011;18697;42.770;23.400;2023-03-14T05:08:50;25.42;;;12.90;;
32196;SDS011;18697;42.770;23.400;2023-03-14T05:11:15;25.67;;;14.50;;
32196;SDS011;18697;42.770;23.400;2023-03-14T05:13:41;25.55;;;14.93;;
32196;SDS011;18697;42.770;23.400;2023-03-14T05:16:07;35.67;;;15.98;;
32196;SDS011;18697;42.770;23.400;2023-03-14T05:18:34;49.50;;;23.23;;
32196;SDS011;18697;42.770;23.400;2023-03-14T05:20:59;41.10;;;20.65;;
32196;SDS011;18697;42.770;23.400;2023-03-14T05:23:24;33.75;;;19.38;;
32196;SDS011;18697;42.770;23.400;2023-03-14T05:25:50;71.10;;;35.25;;
32196;SDS011;18697;42.770;23.400;2023-03-14T05:28:16;33.60;;;20.85;;
32196;SDS011;18697;42.770;23.400;2023-03-14T05:30:41;39.97;;;21.55;;
32196;SDS011;18697;42.770;23.400;2023-03-14T05:33:06;60.78;;;30.13;;
32196;SDS011;18697;42.770;23.400;2023-03-14T05:35:33;72.72;;;29.83;;
32196;SDS011;18697;42.770;23.400;2023-03-14T05:37:59;41.35;;;17.85;;
32196;SDS011;18697;42.770;23.400;2023-03-14T05:40:24;52.45;;;22.95;;
32196;SDS011;18697;42.770;23.400;2023-03-14T05:42:50;58.58;;;23.90;;
32196;SDS011;18697;42.770;23.400;2023-03-14T05:45:16;49.92;;;22.58;;
32196;SDS011;18697;42.770;23.400;2023-03-14T05:47:41;41.45;;;18.17;;
32196;SDS011;18697;42.770;23.400;2023-03-14T05:50:06;35.25;;;20.08;;
32196;SDS011;18697;42.770;23.400;2023-03-14T05:52:32;43.08;;;21.67;;
32196;SDS011;18697;42.770;23.400;2023-03-14T05:54:58;39.40;;;20.75;;
32196;SDS011;18697;42.770;23.400;2023-03-14T05:57:23;41.78;;;20.60;;
32196;SDS011;18697;42.770;23.400;2023-03-14T05:59:48;50.90;;;24.02;;
32196;SDS011;18697;42.770;23.400;2023-03-14T06:02:14;43.10;;;24.35;;
32196;SDS011;18697;42.770;23.400;2023-03-14T06:04:39;38.72;;;21.65;;
32196;SDS011;18697;42.770;23.400;2023-03-14T06:07:04;41.10;;;21.95;;
32196;SDS011;18697;42.770;23.400;2023-03-14T06:09:30;39.50;;;20.83;;
32196;SDS011;18697;42.770;23.400;2023-03-14T06:11:55;33.72;;;19.52;;
32196;SDS011;18697;42.770;23.400;2023-03-14T06:14:20;34.50;;;18.52;;
32196;SDS011;18697;42.770;23.400;2023-03-14T06:16:46;30.80;;;16.83;;
32196;SDS011;18697;42.770;23.400;2023-03-14T06:19:13;32.67;;;17.05;;
32196;SDS011;18697;42.770;23.400;2023-03-14T06:21:39;33.03;;;18.30;;
32196;SDS011;18697;42.770;23.400;2023-03-14T06:24:04;35.47;;;20.73;;
32196;SDS011;18697;42.770;23.400;2023-03-14T06:26:30;31.75;;;16.92;;
32196;SDS011;18697;42.770;23.400;2023-03-14T06:28:55;29.95;;;15.95;;
32196;SDS011;18697;42.770;23.400;2023-03-14T06:31:21;27.00;;;14.85;;
32196;SDS011;18697;42.770;23.400;2023-03-14T06:33:46;27.77;;;14.45;;
32196;SDS011;18697;42.770;23.400;2023-03-14T06:36:12;26.13;;;13.55;;
32196;SDS011;18697;42.770;23.400;2023-03-14T06:38:37;27.98;;;13.18;;
32196;SDS011;18697;42.770;23.400;2023-03-14T06:41:06;18.08;;;11.35;;
32196;SDS011;18697;42.770;23.400;2023-03-14T06:43:32;19.30;;;12.05;;
32196;SDS011;18697;42.770;23.400;2023-03-14T06:45:57;18.80;;;12.55;;
32196;SDS011;18697;42.770;23.400;2023-03-14T06:50:48;19.00;;;11.98;;
32196;SDS011;18697;42.770;23.400;2023-03-14T06:55:39;14.23;;;6.23;;
32196;SDS011;18697;42.770;23.400;2023-03-14T07:00:32;12.57;;;6.18;;
32196;SDS011;18697;42.770;23.400;2023-03-14T07:02:59;12.10;;;6.40;;
32196;SDS011;18697;42.770;23.400;2023-03-14T07:05:24;13.68;;;6.25;;
32196;SDS011;18697;42.770;23.400;2023-03-14T07:10:15;23.05;;;7.57;;
32196;SDS011;18697;42.770;23.400;2023-03-14T07:15:06;10.25;;;7.15;;
32196;SDS011;18697;42.770;23.400;2023-03-14T07:17:31;13.68;;;9.43;;
32196;SDS011;18697;42.770;23.400;2023-03-14T07:19:57;14.88;;;8.73;;
32196;SDS011;18697;42.770;23.400;2023-03-14T07:22:24;12.20;;;8.75;;
32196;SDS011;18697;42.770;23.400;2023-03-14T07:24:49;11.70;;;8.57;;
32196;SDS011;18697;42.770;23.400;2023-03-14T07:29:40;15.80;;;9.10;;
32196;SDS011;18697;42.770;23.400;2023-03-14T07:34:31;12.88;;;8.07;;
32196;SDS011;18697;42.770;23.400;2023-03-14T07:36:56;13.65;;;9.00;;
32196;SDS011;18697;42.770;23.400;2023-03-14T07:39:22;15.35;;;8.30;;
32196;SDS011;18697;42.770;23.400;2023-03-14T07:41:47;11.85;;;7.78;;
32196;SDS011;18697;42.770;23.400;2023-03-14T07:44:12;9.55;;;7.20;;
32196;SDS011;18697;42.770;23.400;2023-03-14T07:46:38;9.15;;;6.97;;
32196;SDS011;18697;42.770;23.400;2023-03-14T07:51:28;13.85;;;7.72;;
32196;SDS011;18697;42.770;23.400;2023-03-14T07:56:19;11.88;;;7.53;;
32196;SDS011;18697;42.770;23.400;2023-03-14T07:58:44;16.45;;;8.13;;
32196;SDS011;18697;42.770;23.400;2023-03-14T08:03:35;11.55;;;6.55;;
32196;SDS011;18697;42.770;23.400;2023-03-14T08:08:25;10.38;;;6.40;;
32196;SDS011;18697;42.770;23.400;2023-03-14T08:13:16;11.13;;;5.95;;
32196;SDS011;18697;42.770;23.400;2023-03-14T08:18:07;10.98;;;6.55;;
32196;SDS011;18697;42.770;23.400;2023-03-14T08:22:58;9.98;;;5.97;;
32196;SDS011;18697;42.770;23.400;2023-03-14T08:25:25;10.20;;;6.60;;
32196;SDS011;18697;42.770;23.400;2023-03-14T08:27:51;10.57;;;4.72;;
32196;SDS011;18697;42.770;23.400;2023-03-14T08:30:17;7.75;;;4.60;;
32196;SDS011;18697;42.770;23.400;2023-03-14T08:32:44;7.63;;;4.47;;
32196;SDS011;18697;42.770;23.400;2023-03-14T08:35:09;8.43;;;4.38;;
32196;SDS011;18697;42.770;23.400;2023-03-14T08:37:36;6.57;;;4.13;;
32196;SDS011;18697;42.770;23.400;2023-03-14T08:40:02;6.72;;;3.95;;
32196;SDS011;18697;42.770;23.400;2023-03-14T08:42:38;5.78;;;4.25;;
32196;SDS011;18697;42.770;23.400;2023-03-14T08:45:05;6.30;;;3.38;;
32196;SDS011;18697;42.770;23.400;2023-03-14T08:47:31;9.35;;;3.67;;
32196;SDS011;18697;42.770;23.400;2023-03-14T08:49:57;5.80;;;3.92;;
32196;SDS011;18697;42.770;23.400;2023-03-14T08:52:22;6.10;;;3.75;;
32196;SDS011;18697;42.770;23.400;2023-03-14T08:57:13;6.90;;;3.70;;
32196;SDS011;18697;42.770;23.400;2023-03-14T08:59:38;6.75;;;3.60;;
32196;SDS011;18697;42.770;23.400;2023-03-14T09:02:04;4.70;;;3.92;;
32196;SDS011;18697;42.770;23.400;2023-03-14T09:04:31;5.22;;;4.07;;
32196;SDS011;18697;42.770;23.400;2023-03-14T09:06:57;5.50;;;3.95;;
32196;SDS011;18697;42.770;23.400;2023-03-14T09:09:25;7.85;;;3.92;;
32196;SDS011;18697;42.770;23.400;2023-03-14T09:11:55;5.93;;;3.97;;
32196;SDS011;18697;42.770;23.400;2023-03-14T09:14:21;10.90;;;5.07;;
32196;SDS011;18697;42.770;23.400;2023-03-14T09:16:46;6.07;;;3.50;;
32196;SDS011;18697;42.770;23.400;2023-03-14T09:19:12;7.72;;;4.07;;
32196;SDS011;18697;42.770;23.400;2023-03-14T09:24:03;5.75;;;3.65;;
32196;SDS011;18697;42.770;23.400;2023-03-14T09:26:29;7.88;;;3.83;;
32196;SDS011;18697;42.770;23.400;2023-03-14T09:28:55;4.18;;;3.58;;
32196;SDS011;18697;42.770;23.400;2023-03-14T09:33:45;5.97;;;4.00;;
32196;SDS011;18697;42.770;23.400;2023-03-14T09:36:11;5.18;;;3.53;;
32196;SDS011;18697;42.770;23.400;2023-03-14T09:38:36;8.25;;;4.32;;
32196;SDS011;18697;42.770;23.400;2023-03-14T09:41:02;8.65;;;3.67;;
32196;SDS011;18697;42.770;23.400;2023-03-14T09:43:40;5.55;;;3.33;;
32196;SDS011;18697;42.770;23.400;2023-03-14T09:46:08;6.53;;;3.97;;
32196;SDS011;18697;42.770;23.400;2023-03-14T09:48:36;6.75;;;3.65;;
32196;SDS011;18697;42.770;23.400;2023-03-14T09:51:03;6.90;;;3.85;;
32196;SDS011;18697;42.770;23.400;2023-03-14T09:53:40;6.47;;;3.50;;
32196;SDS011;18697;42.770;23.400;2023-03-14T09:56:16;5.15;;;3.38;;
32196;SDS011;18697;42.770;23.400;2023-03-14T09:58:45;5.15;;;3.78;;
32196;SDS011;18697;42.770;23.400;2023-03-14T10:01:16;3.35;;;3.05;;
32196;SDS011;18697;42.770;23.400;2023-03-14T10:03:45;5.75;;;3.42;;
32196;SDS011;18697;42.770;23.400;2023-03-14T10:06:12;6.25;;;3.80;;
32196;SDS011;18697;42.770;23.400;2023-03-14T10:08:42;6.43;;;4.18;;
32196;SDS011;18697;42.770;23.400;2023-03-14T10:11:16;4.18;;;3.72;;
32196;SDS011;18697;42.770;23.400;2023-03-14T10:16:25;4.47;;;3.08;;
32196;SDS011;18697;42.770;23.400;2023-03-14T10:18:58;7.03;;;3.60;;
32196;SDS011;18697;42.770;23.400;2023-03-14T10:21:30;6.57;;;3.92;;
32196;SDS011;18697;42.770;23.400;2023-03-14T10:24:19;8.80;;;4.03;;
32196;SDS011;18697;42.770;23.400;2023-03-14T10:26:47;8.30;;;4.18;;
32196;SDS011;18697;42.770;23.400;2023-03-14T10:29:15;9.50;;;3.88;;
32196;SDS011;18697;42.770;23.400;2023-03-14T10:34:26;7.47;;;4.10;;
32196;SDS011;18697;42.770;23.400;2023-03-14T10:36:55;6.00;;;4.38;;
32196;SDS011;18697;42.770;23.400;2023-03-14T10:39:33;5.57;;;3.97;;
32196;SDS011;18697;42.770;23.400;2023-03-14T10:42:12;6.80;;;3.28;;
32196;SDS011;18697;42.770;23.400;2023-03-14T10:44:42;5.80;;;3.70;;
32196;SDS011;18697;42.770;23.400;2023-03-14T10:47:15;6.40;;;4.18;;
32196;SDS011;18697;42.770;23.400;2023-03-14T10:49:44;6.63;;;3.60;;
32196;SDS011;18697;42.770;23.400;2023-03-14T10:54:54;5.63;;;3.10;;
32196;SDS011;18697;42.770;23.400;2023-03-14T10:57:20;5.90;;;3.80;;
32196;SDS011;18697;42.770;23.400;2023-03-14T10:59:45;6.72;;;2.85;;
32196;SDS011;18697;42.770;23.400;2023-03-14T11:05:03;5.72;;;3.25;;
32196;SDS011;18697;42.770;23.400;2023-03-14T11:07:43;3.97;;;2.92;;
32196;SDS011;18697;42.770;23.400;2023-03-14T11:12:55;9.70;;;2.78;;
32196;SDS011;18697;42.770;23.400;2023-03-14T11:21:13;3.75;;;2.20;;
32196;SDS011;18697;42.770;23.400;2023-03-14T11:26:27;5.53;;;2.80;;
32196;SDS011;18697;42.770;23.400;2023-03-14T11:28:57;3.38;;;2.80;;
32196;SDS011;18697;42.770;23.400;2023-03-14T11:31:28;8.02;;;3.97;;
32196;SDS011;18697;42.770;23.400;2023-03-14T11:36:41;4.90;;;2.70;;
32196;SDS011;18697;42.770;23.400;2023-03-14T11:39:14;5.40;;;2.50;;
32196;SDS011;18697;42.770;23.400;2023-03-14T11:41:42;6.28;;;2.88;;
32196;SDS011;18697;42.770;23.400;2023-03-14T11:44:16;3.70;;;2.85;;
32196;SDS011;18697;42.770;23.400;2023-03-14T11:47:06;3.88;;;2.92;;
32196;SDS011;18697;42.770;23.400;2023-03-14T11:49:53;3.97;;;2.90;;
32196;SDS011;18697;42.770;23.400;2023-03-14T11:57:37;4.32;;;3.00;;
32196;SDS011;18697;42.770;23.400;2023-03-14T12:00:18;7.75;;;2.90;;
32196;SDS011;18697;42.770;23.400;2023-03-14T12:10:41;9.52;;;2.70;;
32196;SDS011;18697;42.770;23.400;2023-03-14T12:13:11;3.05;;;2.13;;
32196;SDS011;18697;42.770;23.400;2023-03-14T12:15:40;4.28;;;2.58;;
32196;SDS011;18697;42.770;23.400;2023-03-14T12:20:58;4.72;;;2.92;;
32196;SDS011;18697;42.770;23.400;2023-03-14T12:23:27;4.53;;;2.15;;
32196;SDS011;18697;42.770;23.400;2023-03-14T12:26:13;5.70;;;2.40;;
32196;SDS011;18697;42.770;23.400;2023-03-14T12:28:48;3.33;;;2.33;;
32196;SDS011;18697;42.770;23.400;2023-03-14T12:31:49;3.60;;;2.15;;
32196;SDS011;18697;42.770;23.400;2023-03-14T12:34:41;5.35;;;2.38;;
32196;SDS011;18697;42.770;23.400;2023-03-14T12:39:35;3.97;;;1.70;;
32196;SDS011;18697;42.770;23.400;2023-03-14T12:42:10;3.83;;;1.60;;
32196;SDS011;18697;42.770;23.400;2023-03-14T12:44:45;1.90;;;1.55;;
32196;SDS011;18697;42.770;23.400;2023-03-14T12:50:18;4.53;;;2.15;;
32196;SDS011;18697;42.770;23.400;2023-03-14T12:55:22;3.25;;;1.50;;
32196;SDS011;18697;42.770;23.400;2023-03-14T12:58:00;2.85;;;1.80;;
32196;SDS011;18697;42.770;23.400;2023-03-14T13:00:51;2.08;;;1.50;;
32196;SDS011;18697;42.770;23.400;2023-03-14T13:03:22;1.80;;;1.70;;
32196;SDS011;18697;42.770;23.400;2023-03-14T13:05:56;3.55;;;2.30;;
32196;SDS011;18697;42.770;23.400;2023-03-14T13:08:43;4.75;;;2.20;;
32196;SDS011;18697;42.770;23.400;2023-03-14T13:11:14;3.25;;;1.50;;
32196;SDS011;18697;42.770;23.400;2023-03-14T13:13:47;4.80;;;2.75;;
32196;SDS011;18697;42.770;23.400;2023-03-14T13:16:18;10.45;;;5.75;;
32196;SDS011;18697;42.770;23.400;2023-03-14T13:18:46;11.35;;;5.72;;
32196;SDS011;18697;42.770;23.400;2023-03-14T13:21:17;3.78;;;2.03;;
32196;SDS011;18697;42.770;23.400;2023-03-14T13:24:06;2.40;;;2.20;;
32196;SDS011;18697;42.770;23.400;2023-03-14T13:26:43;9.83;;;5.17;;
32196;SDS011;18697;42.770;23.400;2023-03-14T13:31:45;3.92;;;1.83;;
32196;SDS011;18697;42.770;23.400;2023-03-14T13:34:11;3.20;;;1.92;;
32196;SDS011;18697;42.770;23.400;2023-03-14T13:36:37;3.35;;;1.40;;
32196;SDS011;18697;42.770;23.400;2023-03-14T13:39:03;4.68;;;1.45;;
32196;SDS011;18697;42.770;23.400;2023-03-14T13:41:58;11.32;;;2.90;;
32196;SDS011;18697;42.770;23.400;2023-03-14T13:44:33;5.63;;;2.33;;
32196;SDS011;18697;42.770;23.400;2023-03-14T13:47:01;3.47;;;1.60;;
32196;SDS011;18697;42.770;23.400;2023-03-14T13:49:28;2.15;;;1.77;;
32196;SDS011;18697;42.770;23.400;2023-03-14T13:51:57;3.22;;;1.40;;
32196;SDS011;18697;42.770;23.400;2023-03-14T13:54:23;5.95;;;3.50;;
32196;SDS011;18697;42.770;23.400;2023-03-14T13:57:01;4.15;;;2.95;;
32196;SDS011;18697;42.770;23.400;2023-03-14T13:59:29;9.07;;;4.70;;
32196;SDS011;18697;42.770;23.400;2023-03-14T14:01:57;10.55;;;4.13;;
32196;SDS011;18697;42.770;23.400;2023-03-14T14:04:25;8.85;;;4.07;;
32196;SDS011;18697;42.770;23.400;2023-03-14T14:06:58;6.57;;;2.55;;
32196;SDS011;18697;42.770;23.400;2023-03-14T14:09:27;2.50;;;1.90;;
32196;SDS011;18697;42.770;23.400;2023-03-14T14:14:28;3.25;;;2.38;;
32196;SDS011;18697;42.770;23.400;2023-03-14T14:16:58;2.10;;;1.90;;
32196;SDS011;18697;42.770;23.400;2023-03-14T14:19:27;2.35;;;1.60;;
32196;SDS011;18697;42.770;23.400;2023-03-14T14:21:54;6.90;;;2.90;;
32196;SDS011;18697;42.770;23.400;2023-03-14T14:24:22;7.70;;;3.00;;
32196;SDS011;18697;42.770;23.400;2023-03-14T14:26:53;3.92;;;2.58;;
32196;SDS011;18697;42.770;23.400;2023-03-14T14:29:28;3.30;;;2.65;;
32196;SDS011;18697;42.770;23.400;2023-03-14T14:34:28;2.72;;;2.13;;
32196;SDS011;18697;42.770;23.400;2023-03-14T14:36:53;3.72;;;2.60;;
32196;SDS011;18697;42.770;23.400;2023-03-14T14:39:20;5.80;;;3.35;;
32196;SDS011;18697;42.770;23.400;2023-03-14T14:41:51;5.45;;;3.30;;
32196;SDS011;18697;42.770;23.400;2023-03-14T14:44:35;5.47;;;2.72;;
32196;SDS011;18697;42.770;23.400;2023-03-14T14:47:04;2.75;;;2.22;;
32196;SDS011;18697;42.770;23.400;2023-03-14T14:49:30;14.30;;;6.68;;
32196;SDS011;18697;42.770;23.400;2023-03-14T14:52:04;7.35;;;3.10;;
32196;SDS011;18697;42.770;23.400;2023-03-14T14:54:42;5.72;;;3.33;;
32196;SDS011;18697;42.770;23.400;2023-03-14T14:57:48;7.10;;;3.95;;
32196;SDS011;18697;42.770;23.400;2023-03-14T15:00:06;24.85;;;11.10;;
32196;SDS011;18697;42.770;23.400;2023-03-14T15:02:41;15.05;;;6.60;;
32196;SDS011;18697;42.770;23.400;2023-03-14T15:05:12;7.90;;;4.38;;
32196;SDS011;18697;42.770;23.400;2023-03-14T15:07:39;8.25;;;4.63;;
32196;SDS011;18697;42.770;23.400;2023-03-14T15:10:05;8.20;;;3.45;;
32196;SDS011;18697;42.770;23.400;2023-03-14T15:12:31;7.50;;;4.28;;
32196;SDS011;18697;42.770;23.400;2023-03-14T15:14:56;7.97;;;4.53;;
32196;SDS011;18697;42.770;23.400;2023-03-14T15:17:22;11.95;;;5.53;;
32196;SDS011;18697;42.770;23.400;2023-03-14T15:19:49;10.95;;;5.68;;
32196;SDS011;18697;42.770;23.400;2023-03-14T15:22:14;10.25;;;5.05;;
32196;SDS011;18697;42.770;23.400;2023-03-14T15:24:40;9.63;;;4.75;;
32196;SDS011;18697;42.770;23.400;2023-03-14T15:27:13;12.02;;;5.32;;
32196;SDS011;18697;42.770;23.400;2023-03-14T15:29:40;11.38;;;5.05;;
32196;SDS011;18697;42.770;23.400;2023-03-14T15:32:14;8.00;;;4.25;;
32196;SDS011;18697;42.770;23.400;2023-03-14T15:34:41;12.73;;;8.05;;
32196;SDS011;18697;42.770;23.400;2023-03-14T15:37:11;16.42;;;6.78;;
32196;SDS011;18697;42.770;23.400;2023-03-14T15:39:40;14.18;;;8.70;;
32196;SDS011;18697;42.770;23.400;2023-03-14T15:42:06;10.55;;;6.18;;
32196;SDS011;18697;42.770;23.400;2023-03-14T15:44:32;8.30;;;4.97;;
32196;SDS011;18697;42.770;23.400;2023-03-14T15:49:22;26.10;;;8.63;;
32196;SDS011;18697;42.770;23.400;2023-03-14T15:51:47;10.63;;;6.20;;
32196;SDS011;18697;42.770;23.400;2023-03-14T15:56:39;10.35;;;5.50;;
32196;SDS011;18697;42.770;23.400;2023-03-14T16:01:29;18.35;;;9.27;;
32196;SDS011;18697;42.770;23.400;2023-03-14T16:06:20;19.42;;;7.85;;
32196;SDS011;18697;42.770;23.400;2023-03-14T16:11:11;63.28;;;29.08;;
32196;SDS011;18697;42.770;23.400;2023-03-14T16:13:39;45.97;;;26.55;;
32196;SDS011;18697;42.770;23.400;2023-03-14T16:16:05;28.85;;;15.23;;
32196;SDS011;18697;42.770;23.400;2023-03-14T16:18:32;20.33;;;13.38;;
32196;SDS011;18697;42.770;23.400;2023-03-14T16:21:00;17.08;;;10.32;;
32196;SDS011;18697;42.770;23.400;2023-03-14T16:23:27;19.52;;;10.27;;
32196;SDS011;18697;42.770;23.400;2023-03-14T16:25:53;12.35;;;7.38;;
32196;SDS011;18697;42.770;23.400;2023-03-14T16:28:20;37.60;;;15.70;;
32196;SDS011;18697;42.770;23.400;2023-03-14T16:30:45;18.45;;;11.82;;
32196;SDS011;18697;42.770;23.400;2023-03-14T16:33:11;18.20;;;9.88;;